Nearby METAR Reports

   
KFPR - Fort Pierce, FL
Updated: Aug 21 2017 7:53 am
Clear  
Clear  
   Wind: ESE 5.8 mph
Wind: ESE 5.8 mph
Temperature: 80.6°F
Heat Index: 87.8°F
Dew Point: 78.8°F
Humidity: 94%
Barometer: 30.1 inHg
Clouds: Clear
Visibility: 10 mi
Cloud details: Clear
KFPR 211153Z 11005KT 10SM CLR 27/26 A3008 RMK AO2 SLP187 60015 70030 T02720256 10272 20239 53013
KSUA - Stuart, FL
Updated: Aug 21 2017 7:50 am
Partly Cloudy  
Partly Cloudy  
   Wind: East 9.2 mph
Wind: East 9.2 mph
Temperature: 86°F
Heat Index: 102.2°F
Dew Point: 80.6°F
Humidity: 84%
Barometer: 30.1 inHg
Clouds: Partly Cloudy
Visibility: 7 mi
Cloud details: Partly Cloudy 762 m,
Partly Cloudy 1006 m
KSUA 211150Z 10008KT 7SM SCT025 SCT033 30/27 A3009
KOBE - Okeechobee, FL
Updated: Aug 21 2017 7:55 am
Clear  
Clear  
   Wind: NNE 3.5 mph
Wind: NNE 3.5 mph
Temperature: 75.2°F
Dew Point: 73.4°F
Humidity: 94%
Barometer: 30.1 inHg
Clouds: Clear
Visibility: 10 mi
Cloud details: Clear
KOBE 211155Z AUTO 03003KT 10SM CLR 24/23 A3009 RMK AO2

Script developed by  Saratoga-weather.org Adapted for the template by  Weerstation Leuven

You find our weather info also at:

WeatherCloud

Weather Underground

Southeastern Weather Network

Citizen Weather Observer Program (CWOP)

HAMweather, WeatherForYou, PWS Weather

Anything Weather